createdAt,value
2019-06-08T00:02:07.587Z,12.73
2019-06-08T00:07:09.233Z,12.57
2019-06-08T00:12:10.779Z,12.63
2019-06-08T00:17:29.280Z,13.40
2019-06-08T00:22:15.798Z,13.50
2019-06-08T00:27:20.232Z,13.70
2019-06-08T00:32:22.491Z,13.37
2019-06-08T00:37:24.998Z,13.77
2019-06-08T00:42:26.773Z,13.63
2019-06-08T00:47:46.634Z,14.20
2019-06-08T00:52:31.901Z,13.83
2019-06-08T00:57:33.605Z,13.93
2019-06-08T01:02:35.449Z,14.70
2019-06-08T01:07:37.021Z,16.40
2019-06-08T01:12:38.561Z,14.50
2019-06-08T01:17:40.165Z,15.43
2019-06-08T01:22:41.932Z,15.37
2019-06-08T01:27:43.496Z,16.13
2019-06-08T01:32:45.067Z,16.37
2019-06-08T01:37:46.637Z,18.00
2019-06-08T01:42:48.112Z,17.57
2019-06-08T01:47:49.879Z,17.40
2019-06-08T01:52:51.350Z,17.23
2019-06-08T01:57:52.828Z,17.97
2019-06-08T02:02:55.710Z,17.10
2019-06-08T02:07:57.206Z,16.77
2019-06-08T02:12:58.871Z,17.77
2019-06-08T02:18:00.413Z,17.93
2019-06-08T02:23:02.129Z,17.83
2019-06-08T02:28:04.270Z,17.67
2019-06-08T02:33:05.959Z,17.73
2019-06-08T02:38:07.449Z,16.73
2019-06-08T02:43:09.357Z,4.90
2019-06-08T02:48:10.918Z,3.07
2019-06-08T02:53:12.601Z,2.23
2019-06-08T02:58:16.083Z,2.20
2019-06-08T03:03:17.969Z,1.70
2019-06-08T03:08:20.015Z,1.93
2019-06-08T03:13:22.936Z,2.00
2019-06-08T03:18:24.408Z,1.87
2019-06-08T03:23:25.881Z,1.80
2019-06-08T03:28:27.914Z,1.80
2019-06-08T03:33:29.391Z,1.77
2019-06-08T03:38:31.251Z,1.80
2019-06-08T03:43:32.730Z,1.73
2019-06-08T03:48:35.037Z,1.57
2019-06-08T03:53:38.043Z,1.97
2019-06-08T03:58:41.216Z,1.97
2019-06-08T04:03:46.038Z,1.23
2019-06-08T04:08:47.920Z,1.33
2019-06-08T04:13:50.111Z,1.80
2019-06-08T04:18:52.065Z,1.37
2019-06-08T04:23:53.540Z,1.50
2019-06-08T04:28:55.029Z,1.90
2019-06-08T04:33:56.517Z,1.70
2019-06-08T04:38:58.015Z,1.60
2019-06-08T04:43:59.579Z,1.67
2019-06-08T04:49:01.073Z,1.60
2019-06-08T04:54:02.843Z,1.47
2019-06-08T04:59:04.345Z,1.40
2019-06-08T05:04:05.823Z,1.20
2019-06-08T05:09:07.377Z,1.30
2019-06-08T05:14:08.863Z,1.27
2019-06-08T05:19:10.348Z,1.00
2019-06-08T05:24:11.842Z,1.53
2019-06-08T05:29:13.650Z,1.20
2019-06-08T05:34:15.138Z,1.10
2019-06-08T05:39:16.840Z,1.40
2019-06-08T05:44:18.308Z,1.10
2019-06-08T05:49:19.797Z,1.00
2019-06-08T05:54:21.284Z,1.20
2019-06-08T05:59:25.990Z,1.17
2019-06-08T06:04:27.957Z,1.30
2019-06-08T06:09:29.644Z,1.00
2019-06-08T06:14:31.127Z,1.30
2019-06-08T06:19:32.814Z,1.10
2019-06-08T06:24:34.293Z,1.20
2019-06-08T06:29:35.981Z,1.33
2019-06-08T06:34:37.597Z,1.20
2019-06-08T06:39:39.191Z,1.00
2019-06-08T06:44:42.149Z,1.10
2019-06-08T06:49:44.527Z,1.00
2019-06-08T06:54:46.741Z,1.00
2019-06-08T06:59:49.250Z,1.03
2019-06-08T07:04:52.223Z,0.90
2019-06-08T07:09:54.926Z,1.00
2019-06-08T07:14:56.633Z,1.00
2019-06-08T07:19:58.925Z,0.83
2019-06-08T07:25:00.723Z,1.10
2019-06-08T07:30:04.367Z,1.10
2019-06-08T07:35:06.683Z,1.20
2019-06-08T07:40:09.580Z,0.80
2019-06-08T07:45:11.445Z,1.00
2019-06-08T07:50:13.701Z,0.90
2019-06-08T07:55:16.876Z,1.10
2019-06-08T08:00:19.152Z,1.13
2019-06-08T08:05:20.719Z,0.80
2019-06-08T08:10:22.574Z,0.80
2019-06-08T08:15:24.255Z,0.73
2019-06-08T08:20:25.780Z,0.77
2019-06-08T08:25:28.211Z,0.80
2019-06-08T08:30:30.176Z,0.97
2019-06-08T08:35:31.857Z,0.93
2019-06-08T08:40:33.750Z,0.90
2019-06-08T08:45:37.319Z,0.80
2019-06-08T08:50:38.999Z,0.70
2019-06-08T08:55:40.577Z,0.97
2019-06-08T09:00:42.619Z,0.60
2019-06-08T09:05:44.177Z,0.73
2019-06-08T09:10:47.938Z,0.80
2019-06-08T09:15:52.278Z,0.80
2019-06-08T09:20:54.013Z,0.83
2019-06-08T09:26:01.338Z,0.60
2019-06-08T09:31:02.280Z,0.90
2019-06-08T09:36:04.920Z,1.00
2019-06-08T09:41:08.903Z,0.90
2019-06-08T09:46:10.302Z,1.27
2019-06-08T09:51:12.146Z,0.90
2019-06-08T09:56:13.982Z,0.80
2019-06-08T10:01:18.283Z,0.87
2019-06-08T10:06:19.775Z,0.80
2019-06-08T10:11:21.535Z,0.87
2019-06-08T10:16:23.079Z,1.00
2019-06-08T10:21:24.966Z,1.27
2019-06-08T10:26:28.055Z,1.10
2019-06-08T10:31:38.965Z,0.87
2019-06-08T10:36:33.784Z,1.00
2019-06-08T10:41:35.464Z,0.77
2019-06-08T10:46:40.317Z,1.20
2019-06-08T10:51:41.192Z,1.23
2019-06-08T10:56:42.978Z,1.10
2019-06-08T11:01:44.889Z,1.10
2019-06-08T11:06:47.816Z,1.10
2019-06-08T11:11:49.651Z,0.97
2019-06-08T11:16:51.198Z,0.80
2019-06-08T11:21:52.664Z,1.00
2019-06-08T11:26:54.193Z,1.10
2019-06-08T11:31:58.267Z,1.17
2019-06-08T11:37:01.924Z,1.17
2019-06-08T11:42:04.420Z,0.93
2019-06-08T11:47:09.421Z,1.00
2019-06-08T11:52:11.180Z,1.23
2019-06-08T11:57:13.959Z,1.13
2019-06-08T12:02:15.433Z,1.40
2019-06-08T12:07:17.209Z,1.50
2019-06-08T12:12:21.439Z,1.00
2019-06-08T12:17:23.267Z,1.03
2019-06-08T12:22:24.773Z,1.20
2019-06-08T12:27:33.150Z,1.37
2019-06-08T12:32:29.851Z,1.57
2019-06-08T12:37:31.452Z,1.27
2019-06-08T12:42:32.945Z,1.20
2019-06-08T12:47:34.702Z,1.50
2019-06-08T12:52:38.863Z,1.03
2019-06-08T12:57:40.319Z,2.13
2019-06-08T13:02:42.026Z,1.40
2019-06-08T13:07:43.894Z,1.50
2019-06-08T13:12:47.894Z,1.23
2019-06-08T13:17:50.559Z,1.37
2019-06-08T13:22:52.818Z,1.60
2019-06-08T13:27:54.312Z,1.70
2019-06-08T13:32:57.871Z,1.23
2019-06-08T13:37:59.239Z,1.37
2019-06-08T13:43:00.823Z,1.40
2019-06-08T13:48:02.424Z,1.50
2019-06-08T13:53:04.164Z,1.70
2019-06-08T13:58:05.782Z,1.37
2019-06-08T14:03:08.613Z,1.60
2019-06-08T14:08:11.121Z,1.23
2019-06-08T14:13:12.925Z,1.20
2019-06-08T14:18:17.923Z,1.50
2019-06-08T14:23:21.048Z,1.33
2019-06-08T14:28:22.954Z,1.40
2019-06-08T14:33:29.157Z,1.13
2019-06-08T14:38:37.557Z,1.40
2019-06-08T14:43:32.171Z,1.27
2019-06-08T14:48:34.075Z,1.50
2019-06-08T14:53:35.896Z,1.80
2019-06-08T14:58:38.579Z,1.83
2019-06-08T15:03:43.282Z,1.40
2019-06-08T15:08:50.354Z,1.53
2019-06-08T15:13:58.172Z,1.67
2019-06-08T15:19:00.329Z,1.40
2019-06-08T15:24:02.210Z,1.70
2019-06-08T15:29:04.053Z,1.40
2019-06-08T15:34:05.552Z,1.23
2019-06-08T15:39:07.907Z,1.60
2019-06-08T15:44:09.897Z,1.10
2019-06-08T15:49:11.434Z,1.23
2019-06-08T15:54:12.946Z,1.40
2019-06-08T15:59:14.675Z,1.40
2019-06-08T16:04:16.454Z,1.40
2019-06-08T16:09:18.300Z,1.97
2019-06-08T16:14:20.160Z,1.60
2019-06-08T16:19:21.779Z,1.10
2019-06-08T16:24:23.481Z,1.23
2019-06-08T16:29:24.975Z,1.20
2019-06-08T16:34:27.307Z,1.50
2019-06-08T16:39:28.933Z,1.43
2019-06-08T16:44:30.511Z,1.33
2019-06-08T16:49:33.277Z,1.13
2019-06-08T16:54:35.216Z,1.30
2019-06-08T16:59:36.874Z,1.30
2019-06-08T17:04:39.195Z,1.60
2019-06-08T17:09:41.660Z,1.50
2019-06-08T17:14:43.215Z,1.50
2019-06-08T17:19:44.615Z,1.37
2019-06-08T17:24:46.442Z,1.30
2019-06-08T17:29:48.241Z,1.30
2019-06-08T17:34:49.781Z,1.40
2019-06-08T17:39:51.320Z,1.40
2019-06-08T17:44:52.797Z,1.30
2019-06-08T17:49:54.471Z,1.70
2019-06-08T17:54:55.953Z,1.30
2019-06-08T17:59:57.429Z,1.20
2019-06-08T18:04:58.986Z,1.40
2019-06-08T18:10:01.004Z,1.27
2019-06-08T18:15:07.690Z,1.40
2019-06-08T18:20:14.539Z,1.80
2019-06-08T18:25:17.403Z,1.37
2019-06-08T18:30:22.521Z,1.30
2019-06-08T18:35:24.017Z,1.50
2019-06-08T18:40:27.577Z,1.90
2019-06-08T18:45:29.398Z,1.37
2019-06-08T18:50:30.977Z,1.70
2019-06-08T18:55:32.711Z,1.53
2019-06-08T19:00:40.011Z,1.40
2019-06-08T19:05:43.908Z,1.30
2019-06-08T19:10:44.044Z,1.97
2019-06-08T19:15:52.207Z,2.10
2019-06-08T19:20:52.648Z,2.03
2019-06-08T19:25:52.687Z,1.73
2019-06-08T19:30:54.261Z,1.73
2019-06-08T19:35:58.173Z,1.80
2019-06-08T19:41:00.251Z,1.73
2019-06-08T19:46:02.944Z,2.10
2019-06-08T19:51:07.485Z,1.90
2019-06-08T19:56:08.559Z,2.10
2019-06-08T20:01:10.086Z,1.60
2019-06-08T20:06:14.282Z,1.87
2019-06-08T20:11:17.187Z,1.97
2019-06-08T20:16:18.715Z,1.77
2019-06-08T20:21:20.298Z,1.73
2019-06-08T20:26:21.877Z,1.53
2019-06-08T20:31:23.363Z,1.90
2019-06-08T20:36:24.862Z,2.00
2019-06-08T20:41:27.735Z,2.20
2019-06-08T20:46:29.460Z,1.80
2019-06-08T20:51:31.270Z,2.30
2019-06-08T20:56:32.756Z,1.97
2019-06-08T21:01:34.463Z,2.10
2019-06-08T21:06:38.457Z,2.37
2019-06-08T21:11:39.650Z,2.10
2019-06-08T21:16:41.309Z,2.37
2019-06-08T21:21:43.298Z,2.17
2019-06-08T21:26:46.156Z,2.40
2019-06-08T21:31:51.553Z,2.53
2019-06-08T21:36:53.836Z,2.70
2019-06-08T21:42:01.006Z,2.70
2019-06-08T21:47:01.330Z,2.80
2019-06-08T21:52:02.301Z,2.70
2019-06-08T21:57:06.561Z,3.30
2019-06-08T22:02:08.331Z,4.20
2019-06-08T22:07:10.060Z,4.80
2019-06-08T22:12:11.811Z,5.20
2019-06-08T22:17:15.973Z,5.37
2019-06-08T22:22:16.673Z,5.63
2019-06-08T22:27:18.161Z,6.10
2019-06-08T22:32:19.741Z,7.90
2019-06-08T22:37:21.425Z,8.27
2019-06-08T22:42:23.016Z,8.83
2019-06-08T22:47:24.860Z,8.90
2019-06-08T22:52:27.682Z,8.27
2019-06-08T22:57:29.323Z,8.60
2019-06-08T23:02:31.208Z,8.70
2019-06-08T23:07:32.986Z,8.63
2019-06-08T23:12:34.848Z,7.60
2019-06-08T23:17:38.705Z,6.70
2019-06-08T23:22:39.704Z,6.77
2019-06-08T23:27:41.288Z,6.50
2019-06-08T23:32:43.082Z,6.63
2019-06-08T23:37:44.851Z,6.67
2019-06-08T23:42:47.697Z,5.90
2019-06-08T23:47:49.397Z,5.67
2019-06-08T23:52:51.197Z,5.73
2019-06-08T23:57:52.664Z,5.23
